Bottisham, United Kingdom
Current Conditions -  °F | °C
As of 11:50 AM on Thursday 23 Oct 2014 (Local Time) from EGSC Reporting Station
Scattered Clouds Scattered Clouds  
Wind Chill: 59°   Ceiling: Unl
Heat Index: 59°   Visibility: 6mi
Dew Point: 50°   Wind: 14mph
Humidity: 72%   Direction: 210°SSW
Pressure: 30.09"   Gusts: NA
Location:  52.22°N, 0.26°E
Report Text: EGSC 231050Z 21012KT 150V240 9999 SCT030 15/10 Q1019
Loading
Personal Weather Stations






























Interactive Weather Map
Tropical Storm Tracking
New forecast layout! Learn more

10-Day Weather Forecast

Advertisements
Track Severe Weather on mobile